Time;durP1;ratioP1;P1;durP2;ratioP2;P2;SDS_P1;SDS_P2;PMS_P1;PMS_P2;Temp;Humidity;BMP_temperature;BMP_pressure;BME280_temperature;BME280_humidity;BME280_pressure;Samples;Min_cycle;Max_cycle;Signal;HPM_P1;HPM_P2
2022/11/15 00:00:11;;;;;;;104.65;44.98;;;;;;;4.91;85.03;101071.39;1698131;82;21010;-83
2022/11/15 00:02:55;;;;;;;95.42;45.35;;;;;;;4.92;85.01;101070.55;1693476;82;21064;-84
2022/11/15 00:05:40;;;;;;;100.95;45.65;;;;;;;4.93;85.05;101062.89;1700924;82;21497;-83
2022/11/15 00:08:29;;;;;;;94.80;42.85;;;;;;;4.99;85.10;101056.56;1720704;82;21047;-83
2022/11/15 00:11:14;;;;;;;109.00;44.25;;;;;;;5.00;85.08;101056.15;1778819;80;21048;-84
2022/11/15 00:14:02;;;;;;;99.75;43.87;;;;;;;5.01;85.11;101050.60;1777576;80;21017;-83
2022/11/15 00:16:46;;;;;;;104.58;44.88;;;;;;;5.01;85.13;101051.88;1780531;80;21527;-83
2022/11/15 00:19:31;;;;;;;101.18;46.35;;;;;;;5.06;85.18;101051.11;1763771;80;21040;-83
2022/11/15 00:22:16;;;;;;;94.32;43.08;;;;;;;5.07;85.16;101042.58;1772654;80;21119;-83
2022/11/15 00:25:01;;;;;;;111.15;47.75;;;;;;;5.10;85.22;101046.87;1755630;80;21092;-83
2022/11/15 00:27:46;;;;;;;93.82;43.17;;;;;;;5.13;85.21;101052.05;1777400;80;21611;-83
2022/11/15 00:30:31;;;;;;;87.72;43.42;;;;;;;5.14;85.25;101048.22;1772532;80;21620;-83
2022/11/15 00:33:17;;;;;;;109.32;46.10;;;;;;;5.19;85.29;101052.12;1770421;80;21082;-83
2022/11/15 00:36:11;;;;;;;93.35;43.05;;;;;;;5.21;85.24;101051.70;1767648;80;21075;-83
2022/11/15 00:38:56;;;;;;;105.17;46.80;;;;;;;5.24;85.26;101047.89;1778436;80;21019;-83
2022/11/15 00:41:41;;;;;;;110.70;45.03;;;;;;;5.21;85.14;101046.15;1771793;80;21067;-83
2022/11/15 00:44:27;;;;;;;102.72;43.28;;;;;;;5.16;85.20;101045.26;1767019;80;21056;-83
2022/11/15 00:47:12;;;;;;;92.40;41.33;;;;;;;5.18;85.30;101047.84;1775796;80;21435;-83
2022/11/15 00:49:57;;;;;;;81.92;43.00;;;;;;;5.20;85.32;101043.14;1782186;80;21440;-83
2022/11/15 00:52:43;;;;;;;99.37;42.87;;;;;;;5.23;85.35;101044.89;1761581;80;21083;-83
2022/11/15 00:55:28;;;;;;;98.40;43.87;;;;;;;5.26;85.38;101044.92;1775061;80;21576;-83
2022/11/15 00:58:13;;;;;;;94.72;42.83;;;;;;;5.25;85.33;101040.22;1768405;80;21012;-84
2022/11/15 01:01:08;;;;;;;83.78;40.25;;;;;;;5.21;85.28;101037.17;1767471;80;21429;-83
2022/11/15 01:03:52;;;;;;;84.00;41.50;;;;;;;5.19;85.33;101038.03;1770863;80;21472;-83
2022/11/15 01:06:38;;;;;;;89.97;41.15;;;;;;;5.21;85.43;101033.75;1760012;79;21596;-83
2022/11/15 01:09:23;;;;;;;98.20;43.50;;;;;;;5.23;85.46;101025.66;1759275;79;21477;-83
2022/11/15 01:12:08;;;;;;;81.42;41.90;;;;;;;5.26;85.50;101026.56;1752630;79;21131;-83
2022/11/15 01:14:54;;;;;;;88.40;42.43;;;;;;;5.30;85.51;101025.75;1746644;79;21005;-83
2022/11/15 01:17:39;;;;;;;;;;;;;;;5.32;85.47;101020.22;1757526;79;21096;-83
2022/11/15 01:20:23;;;;;;;;;;;;;;;5.36;85.60;101024.11;1767064;79;20209;-84
2022/11/15 01:23:08;;;;;;;;;;;;;;;5.35;85.59;101022.38;1762456;79;20498;-83
2022/11/15 01:25:53;;;;;;;;;;;;;;;5.30;85.52;101021.91;1762087;79;20171;-84
2022/11/15 01:28:39;;;;;;;;;;;;;;;5.27;85.60;101023.16;1731642;79;20170;-83
2022/11/15 01:31:24;;;;;;;;;;;;;;;5.28;85.57;101015.90;1762546;79;20139;-84
2022/11/15 01:34:08;;;;;;;;;;;;;;;5.23;85.62;101008.58;1756425;79;20159;-84
2022/11/15 01:36:53;;;;;;;;;;;;;;;5.22;85.71;101010.70;1778326;79;20094;-84
2022/11/15 01:39:37;;;;;;;;;;;;;;;5.25;85.78;101009.45;1768035;80;20489;-83
2022/11/15 01:42:22;;;;;;;;;;;;;;;5.25;85.74;101003.47;1757276;79;20462;-83
2022/11/15 01:45:10;;;;;;;;;;;;;;;5.24;85.79;101000.05;1757453;78;20153;-83
2022/11/15 01:47:55;;;;;;;;;;;;;;;5.28;85.84;100998.38;1775450;78;20435;-84
2022/11/15 01:50:40;;;;;;;;;;;;;;;5.26;85.81;100985.96;1773576;78;20576;-83
2022/11/15 01:53:26;;;;;;;;;;;;;;;5.28;85.90;100994.11;1770638;79;20129;-84
2022/11/15 01:56:14;;;;;;;;;;;;;;;5.33;85.91;100990.31;1750057;78;20129;-84
2022/11/15 01:59:01;;;;;;;;;;;;;;;5.35;85.86;100984.78;1771133;79;20130;-83
2022/11/15 02:01:45;;;;;;;;;;;;;;;5.35;85.88;100985.20;1788271;79;20141;-83
2022/11/15 02:04:32;;;;;;;;;;;;;;;5.35;85.84;100986.06;1752497;79;20103;-83
2022/11/15 02:07:18;;;;;;;;;;;;;;;5.38;85.94;100978.83;1763590;79;20175;-83
2022/11/15 02:10:06;;;;;;;;;;;;;;;5.40;85.89;100979.70;1751038;79;20155;-84
2022/11/15 02:12:51;;;;;;;;;;;;;;;5.43;85.95;100982.30;1755023;79;20106;-84
2022/11/15 02:15:39;;;;;;;;;;;;;;;5.40;85.81;100975.86;1753509;79;20554;-84
2022/11/15 02:18:30;;;;;;;;;;;;;;;5.35;85.86;100970.68;1752285;79;20227;-83
2022/11/15 02:21:18;;;;;;;;;;;;;;;5.33;85.93;100969.80;1752172;79;20131;-83
2022/11/15 02:24:24;;;;;;;;;;;;;;;5.28;85.87;100965.05;1735338;79;20223;-84
2022/11/15 02:27:30;;;;;;;;;;;;;;;5.26;85.98;100964.16;1751459;79;20165;-83
2022/11/15 02:30:34;;;;;;;;;;;;;;;5.28;86.08;100965.05;1768023;79;20119;-83
2022/11/15 02:33:37;;;;;;;;;;;;;;;5.27;85.99;100957.78;1760563;79;20523;-83
2022/11/15 02:36:43;;;;;;;;;;;;;;;5.27;86.08;100965.89;1750160;79;20242;-83
2022/11/15 02:39:40;;;;;;;;;;;;;;;5.30;86.16;100969.34;1745409;79;20220;-83
2022/11/15 02:45:35;;;;;;;;;;;;;;;5.21;86.02;100960.27;1766987;79;20182;-83
2022/11/15 02:48:21;;;;;;;;;;;;;;;5.16;86.08;100960.67;1765208;79;20131;-83
2022/11/15 02:51:06;;;;;;;;;;;;;;;5.17;86.20;100961.11;1759819;79;20249;-84
2022/11/15 02:53:50;;;;;;;;;;;;;;;5.19;86.26;100953.44;1747995;79;20765;-84
2022/11/15 02:56:35;;;;;;;;;;;;;;;5.23;86.29;100955.16;1751455;79;20226;-84
2022/11/15 02:59:44;;;;;;;;;;;;;;;5.22;86.17;100953.02;1774366;79;20541;-84
2022/11/15 03:02:35;;;;;;;;;;;;;;;5.22;86.25;100954.30;1764214;79;20480;-84
2022/11/15 03:05:41;;;;;;;;;;;;;;;5.23;86.35;100943.20;1754979;79;20509;-84
2022/11/15 03:08:47;;;;;;;;;;;;;;;5.23;86.22;100934.66;1762580;80;20203;-83
2022/11/15 03:11:35;;;;;;;;;;;;;;;5.21;86.27;100938.48;1751790;79;21078;-83
2022/11/15 03:14:26;;;;;;;;;;;;;;;5.21;86.25;100942.33;1757666;79;20565;-83
2022/11/15 03:17:17;;;;;;;;;;;;;;;5.22;86.25;100936.77;1760899;79;20206;-84
2022/11/15 03:20:04;;;;;;;;;;;;;;;5.22;86.34;100942.77;1749275;79;20487;-84
2022/11/15 03:22:50;;;;;;;;;;;;;;;5.19;86.28;100934.21;1752478;79;20174;-84
2022/11/15 03:25:38;;;;;;;;;;;;;;;5.19;86.34;100937.63;1770312;79;20262;-84
2022/11/15 03:28:25;;;;;;;;;;;;;;;5.18;86.36;100926.94;1745451;79;20195;-84
2022/11/15 03:34:52;;;;;;;;;;;;;;;5.18;86.40;100923.09;1585105;81;5001564;-84
2022/11/15 03:37:40;;;;;;;;;;;;;;;5.17;86.37;100920.52;1714597;83;20225;-83
2022/11/15 03:40:31;;;;;;;;;;;;;;;5.13;86.39;100931.58;1691885;83;343464;-83
2022/11/15 03:43:22;;;;;;;;;;;;;;;5.10;86.46;100934.11;1705556;83;20254;-84
2022/11/15 03:46:15;;;;;;;;;;;;;;;5.09;86.45;100929.41;1707970;83;20205;-83
2022/11/15 03:49:09;;;;;;;;;;;;;;;5.07;86.43;100925.95;1709794;83;20217;-84
2022/11/15 03:51:53;;;;;;;;;;;;;;;5.12;86.58;100920.89;1715641;83;20198;-83
2022/11/15 03:54:55;;;;;;;;;;;;;;;5.09;86.46;100912.73;1696993;83;20236;-83
2022/11/15 03:57:40;;;;;;;;;;;;;;;5.09;86.53;100913.16;1712610;83;20217;-83
2022/11/15 04:00:24;;;;;;;;;;;;;;;5.11;86.62;100916.60;1720823;83;20461;-83
2022/11/15 04:03:09;;;;;;;;;;;;;;;5.16;86.65;100908.55;1697284;81;20643;-83
2022/11/15 04:05:53;;;;;;;;;;;;;;;5.20;86.58;100907.28;1706041;83;20565;-84
2022/11/15 04:08:38;;;;;;;;;;;;;;;5.19;86.51;100903.03;1729386;82;20196;-83
2022/11/15 04:11:22;;;;;;;;;;;;;;;5.21;86.56;100906.44;1740810;81;20644;-83
2022/11/15 04:14:07;;;;;;;;;;;;;;;5.23;86.54;100902.61;1727602;81;20192;-83
2022/11/15 04:16:52;;;;;;;;;;;;;;;5.24;86.55;100899.20;1739382;81;20173;-83
2022/11/15 04:25:43;;;;;;;;;;;;;;;5.12;86.50;100893.55;1734499;81;20461;-84
2022/11/15 04:28:28;;;;;;;;;;;;;;;5.13;86.56;100900.40;1744086;82;20198;-84
2022/11/15 04:31:12;;;;;;;;;;;;;;;5.17;86.62;100899.59;1719239;82;20182;-85
2022/11/15 04:33:57;;;;;;;;;;;;;;;5.19;86.59;100895.76;1735200;82;20249;-84
2022/11/15 04:39:45;;;;;;;;;;;;;;;5.18;86.55;100897.88;1726302;82;20238;-84
2022/11/15 04:42:30;;;;;;;;;;;;;;;5.19;86.63;100891.49;1719962;82;20220;-84
2022/11/15 04:45:15;;;;;;;;;;;;;;;5.22;86.63;100896.62;1722110;82;20484;-84
2022/11/15 04:47:59;;;;;;;;;;;;;;;5.25;86.65;100897.93;1718006;82;20198;-84
2022/11/15 04:50:44;;;;;;;;;;;;;;;5.26;86.61;100895.80;1727544;82;20464;-85
2022/11/15 04:53:28;;;;;;;;;;;;;;;5.25;86.44;100886.81;1724421;82;20175;-85
2022/11/15 04:56:13;;;;;;;;;;;;;;;5.22;86.46;100885.08;1727395;82;20512;-84
2022/11/15 04:58:57;;;;;;;;;;;;;;;5.18;86.48;100879.52;1723800;82;20926;-84
2022/11/15 05:01:42;;;;;;;;;;;;;;;5.18;86.54;100876.95;1715884;82;20196;-85
2022/11/15 05:04:26;;;;;;;;;;;;;;;5.18;86.55;100883.36;1719225;82;20198;-85
2022/11/15 05:07:11;;;;;;;;;;;;;;;5.19;86.56;100876.53;1721867;82;20172;-86
2022/11/15 05:09:55;;;;;;;;;;;;;;;5.13;86.40;100868.78;1707379;82;20906;-86
2022/11/15 05:12:40;;;;;;;;;;;;;;;5.10;86.54;100874.73;1703505;82;20517;-85
2022/11/15 05:15:24;;;;;;;;;;;;;;;5.10;86.59;100867.05;1705206;82;20468;-85
2022/11/15 05:18:09;;;;;;;;;;;;;;;5.11;86.56;100873.03;1710714;82;20266;-77
2022/11/15 05:20:54;;;;;;;;;;;;;;;5.12;86.63;100880.73;1706926;83;20650;-77
2022/11/15 05:23:39;;;;;;;;;;;;;;;5.05;86.41;100872.97;1714438;82;20478;-78
2022/11/15 05:26:24;;;;;;;;;;;;;;;4.97;86.41;100857.51;1700418;83;21052;-77
2022/11/15 05:29:10;;;;;;;;;;;;;;;4.89;86.47;100861.69;1698690;83;20466;-75
2022/11/15 05:31:54;;;;;;;;;;;;;;;4.91;86.70;100866.41;1709630;81;20488;-78
2022/11/15 05:34:39;;;;;;;;;;;;;;;4.92;86.69;100857.45;1704712;82;20590;-78
2022/11/15 05:37:23;;;;;;;;;;;;;;;4.91;86.69;100865.13;1707496;82;20375;-77
2022/11/15 05:40:08;;;;;;;;;;;;;;;4.93;86.72;100866.00;1707725;82;20267;-83
2022/11/15 05:42:53;;;;;;;;;;;;;;;4.89;86.59;100865.53;1698994;83;20605;-83
2022/11/15 05:45:38;;;;;;;;;;;;;;;4.82;86.57;100858.62;1705277;82;20229;-76
2022/11/15 05:48:23;;;;;;;;;;;;;;;4.75;86.51;100860.67;1709386;82;20534;-77
2022/11/15 05:51:08;;;;;;;;;;;;;;;4.69;86.69;100862.73;1705373;83;20989;-77
2022/11/15 05:53:53;;;;;;;;;;;;;;;4.73;86.86;100867.47;1710617;83;20321;-77
2022/11/15 05:56:38;;;;;;;;;;;;;;;4.79;86.89;100860.72;1703017;83;20170;-78
2022/11/15 05:59:24;;;;;;;;;;;;;;;4.81;86.88;100866.72;1703913;82;20602;-77
2022/11/15 06:02:10;;;;;;;;;;;;;;;4.84;86.86;100864.62;1713810;82;20198;-77
2022/11/15 06:04:55;;;;;;;;;;;;;;;4.82;86.80;100868.44;1715313;82;20239;-77
2022/11/15 06:07:39;;;;;;;;;;;;;;;4.77;86.62;100858.56;1719966;82;20616;-77
2022/11/15 06:10:24;;;;;;;;;;;;;;;4.70;86.68;100857.19;1718706;82;20638;-77
2022/11/15 06:13:08;;;;;;;;;;;;;;;4.68;86.72;100854.61;1723759;82;20616;-77
2022/11/15 06:15:58;;;;;;;;;;;;;;;4.64;86.71;100860.16;1730393;82;20161;-77
2022/11/15 06:18:42;;;;;;;;;;;;;;;4.60;86.69;100851.13;1720112;82;20182;-77
2022/11/15 06:21:29;;;;;;;;;;;;;;;4.55;86.71;100869.00;1734692;80;20555;-77
2022/11/15 06:24:14;;;;;;;;;;;;;;;4.53;86.76;100863.00;1711088;82;20187;-77
2022/11/15 06:26:59;;;;;;;;;;;;;;;4.45;86.70;100866.30;1718646;82;20608;-77
2022/11/15 06:29:43;;;;;;;;;;;;;;;4.41;86.73;100865.41;1725979;82;20488;-77
2022/11/15 06:32:29;;;;;;;;;;;;;;;4.43;86.99;100871.41;1732590;82;20212;-77
2022/11/15 06:35:14;;;;;;;;;;;;;;;4.49;87.07;100866.36;1726536;82;20405;-77
2022/11/15 06:38:04;;;;;;;;;;;;;;;4.56;87.05;100863.45;1719356;82;20230;-77
2022/11/15 06:40:49;;;;;;;;;;;;;;;4.59;86.97;100869.48;1722092;82;20605;-77
2022/11/15 06:43:34;;;;;;;;;;;;;;;4.58;86.90;100875.45;1718895;82;20206;-77
2022/11/15 06:46:19;;;;;;;;;;;;;;;4.58;86.92;100867.76;1725385;82;20249;-77
2022/11/15 06:49:03;;;;;;;;;;;;;;;4.57;86.92;100871.16;1718271;82;20185;-77
2022/11/15 06:51:48;;;;;;;;;;;;;;;4.58;86.96;100869.05;1724054;81;20221;-77
2022/11/15 06:54:33;;;;;;;;;;;;;;;4.61;87.06;100874.63;1726758;82;20463;-77
2022/11/15 06:57:17;;;;;;;;;;;;;;;4.66;87.10;100878.10;1718457;80;20650;-77
2022/11/15 07:00:04;;;;;;;;;;;;;;;4.72;87.09;100888.81;1718514;81;20261;-77
2022/11/15 07:02:49;;;;;;;;;;;;;;;4.75;87.08;100887.14;1716606;82;20537;-77
2022/11/15 07:05:34;;;;;;;;;;;;;;;4.81;87.09;100881.23;1721071;82;20539;-77
2022/11/15 07:08:19;;;;;;;;;;;;;;;4.84;87.09;100887.26;1722744;80;20133;-77
2022/11/15 07:11:06;;;;;;;;;;;;;;;4.87;87.03;100885.15;1732593;82;20178;-77
2022/11/15 07:13:50;;;;;;;;;;;;;;;4.89;87.02;100877.92;1735155;82;20181;-77
2022/11/15 07:16:36;;;;;;;;;;;;;;;4.89;86.91;100882.19;1727784;82;20216;-77
2022/11/15 07:19:21;;;;;;;;;;;;;;;4.90;86.98;100887.75;1724493;82;20216;-77
2022/11/15 07:22:06;;;;;;;;;;;;;;;4.90;87.00;100892.88;1736481;82;20473;-77
2022/11/15 07:24:51;;;;;;;;;;;;;;;4.93;87.05;100880.95;1733002;80;20576;-77
2022/11/15 07:27:35;;;;;;;;;;;;;;;4.95;87.09;100894.64;1725809;82;20188;-77
2022/11/15 07:30:20;;;;;;;;;;;;;;;4.99;87.10;100888.71;1731421;82;20198;-77
2022/11/15 07:33:04;;;;;;;;;;;;;;;5.03;87.12;100888.75;1729278;82;20222;-77
2022/11/15 07:35:49;;;;;;;;;;;;;;;5.06;87.12;100881.95;1724873;82;20204;-77
2022/11/15 07:38:35;;;;;;;;;;;;;;;5.06;87.02;100883.66;1733811;82;20271;-77
2022/11/15 07:41:19;;;;;;;;;;;;;;;5.08;87.11;100879.41;1725902;82;20147;-77
2022/11/15 07:44:04;;;;;;;;;;;;;;;5.10;87.03;100877.30;1737416;82;20339;-77
2022/11/15 07:46:49;;;;;;;;;;;;;;;5.12;87.12;100876.89;1736391;80;20340;-77
2022/11/15 07:49:34;;;;;;;;;;;;;;;5.16;87.11;100871.37;1734362;81;20205;-77
2022/11/15 07:52:18;;;;;;;;;;;;;;;5.13;86.98;100858.11;1731831;82;20187;-77
2022/11/15 07:55:03;;;;;;;;;;;;;;;5.11;87.06;100867.91;1732624;82;20517;-77
2022/11/15 07:57:48;;;;;;;;;;;;;;;5.15;87.15;100870.94;1736605;82;20167;-77
2022/11/15 08:00:33;;;;;;;;;;;;;;;5.12;86.95;100861.52;1740121;82;20977;-77
2022/11/15 08:03:17;;;;;;;;;;;;;;;5.05;86.93;100871.27;1734941;81;20174;-77
2022/11/15 08:06:03;;;;;;;;;;;;;;;5.01;86.94;100869.51;1727597;80;21212;-77
2022/11/15 08:08:48;;;;;;;;;;;;;;;4.99;87.05;100868.21;1714157;82;20205;-77
2022/11/15 08:11:32;;;;;;;;;;;;;;;5.02;87.25;100873.79;1707820;83;20644;-77
2022/11/15 08:14:17;;;;;;;;;;;;;;;5.07;87.23;100867.02;1708930;81;20584;-77
2022/11/15 08:17:01;;;;;;;;;;;;;;;5.01;86.99;100864.80;1703092;83;20132;-77
2022/11/15 08:19:46;;;;;;;;;;;;;;;4.97;87.03;100860.06;1712994;82;20198;-77
2022/11/15 08:22:33;;;;;;;;;;;;;;;4.95;87.24;100851.09;1707529;81;20194;-77
2022/11/15 08:25:18;;;;;;;;;;;;;;;5.01;87.32;100854.55;1711117;82;20520;-77
2022/11/15 08:28:04;;;;;;;;;;;;;;;5.04;87.36;100843.05;1705181;83;20209;-77
2022/11/15 08:30:49;;;;;;;;;;;;;;;5.06;87.34;100850.34;1709995;82;20177;-77
2022/11/15 08:33:35;;;;;;;;;;;;;;;5.15;87.54;100842.73;1708722;83;20179;-77
2022/11/15 08:36:20;;;;;;;;;;;;;;;5.22;87.54;100844.48;1697895;83;20802;-77
2022/11/15 08:39:05;;;;;;;;;;;;;;;5.23;87.26;100839.80;1707946;82;20210;-77
2022/11/15 08:41:50;;;;;;;;;;;;;;;5.16;87.09;100831.64;1695435;83;20319;-77
2022/11/15 08:44:34;;;;;;;;;;;;;;;5.17;87.26;100831.66;1700390;82;20184;-77
2022/11/15 08:47:19;;;;;;;;;;;;;;;5.17;87.20;100832.94;1708233;83;20257;-77
2022/11/15 08:50:04;;;;;;;;;;;;;;;5.18;87.33;100833.37;1700462;82;20245;-77
2022/11/15 08:52:48;;;;;;;;;;;;;;;5.24;87.44;100832.55;1705315;83;20248;-77
2022/11/15 08:55:38;;;;;;;;;;;;;;;5.31;87.58;100835.17;1708924;83;20223;-77
2022/11/15 08:58:22;;;;;;;;;;;;;;;5.34;87.38;100818.96;1711496;82;20186;-77
2022/11/15 09:01:16;;;;;;;;;;;;;;;5.34;87.32;100827.94;1709109;82;20229;-77
2022/11/15 09:04:01;;;;;;;;;;;;;;;5.40;87.53;100820.72;1700355;82;20181;-77
2022/11/15 09:06:45;;;;;;;;;;;;;;;5.48;87.61;100826.77;1710420;83;20186;-77
2022/11/15 09:09:30;;;;;;;;;;;;;;;5.56;87.53;100827.27;1704694;82;20156;-77
2022/11/15 09:12:14;;;;;;;;;;;;;;;5.54;87.28;100818.70;1658352;84;20422;-77
2022/11/15 09:14:59;;;;;;;;;;;;;;;5.56;87.35;100822.56;1685422;84;20215;-77
2022/11/15 09:17:43;;;;;;;;;;;;;;;5.59;87.43;100833.70;1685792;84;20182;-77
2022/11/15 09:20:28;;;;;;;;;;;;;;;5.65;87.50;100826.48;1687703;84;20177;-77
2022/11/15 09:23:12;;;;;;;;;;;;;;;5.71;87.45;100831.66;1684460;84;20179;-77
2022/11/15 09:26:02;;;;;;;;;;;;;;;5.71;87.39;100825.67;1683992;84;20175;-77
2022/11/15 09:28:47;;;;;;;;;;;;;;;5.69;87.24;100822.23;1687278;84;20166;-77
2022/11/15 09:31:32;;;;;;;;;;;;;;;5.69;87.37;100826.94;1686038;84;20194;-77
2022/11/15 09:34:16;;;;;;;;;;;;;;;5.70;87.28;100828.66;1686530;84;20231;-78
2022/11/15 09:37:01;;;;;;;;;;;;;;;5.72;87.43;100825.64;1684606;84;20719;-77
2022/11/15 09:39:45;;;;;;;;;;;;;;;5.73;87.36;100821.38;1684498;84;20233;-78
2022/11/15 09:42:52;;;;;;;;;;;;;;;5.69;87.21;100821.81;1685155;84;20183;-77
2022/11/15 09:46:03;;;;;;;;;;;;;;;5.64;87.23;100818.35;1686363;84;20195;-77
2022/11/15 09:48:58;;;;;;;;;;;;;;;5.65;87.41;100817.50;1686170;84;20446;-77
2022/11/15 09:51:49;;;;;;;;;;;;;;;5.56;87.22;100810.59;1686834;84;20226;-77
2022/11/15 09:54:38;;;;;;;;;;;;;;;5.56;87.48;100808.03;1688276;84;20215;-77
2022/11/15 09:57:27;;;;;;;;;;;;;;;5.63;87.63;100812.36;1687187;84;20215;-77
2022/11/15 10:00:24;;;;;;;;;;;;;;;5.71;87.70;100812.42;1687678;84;20178;-77
2022/11/15 10:03:11;;;;;;;;;;;;;;;5.75;87.49;100815.83;1681217;84;20242;-77
2022/11/15 10:05:59;;;;;;;;;;;;;;;5.78;87.62;100815.86;1687656;84;20186;-78
2022/11/15 10:08:57;;;;;;;;;;;;;;;5.86;87.69;100796.23;1686756;84;20207;-77
2022/11/15 10:11:42;;;;;;;;;;;;;;;5.94;87.68;100801.02;1682886;84;20604;-77
2022/11/15 10:14:28;;;;;;;;;;;;;;;6.03;87.66;100793.37;1678717;85;20192;-77
2022/11/15 10:17:45;;;;;;;;;;;;;;;6.01;87.34;100794.22;1711430;83;20234;-77
2022/11/15 10:20:32;;;;;;;;;;;;;;;5.92;87.37;100798.88;1713494;83;20186;-77
2022/11/15 10:23:19;;;;;;;;;;;;;;;5.90;87.48;100795.02;1713559;83;20237;-77
2022/11/15 10:26:07;;;;;;;;;;;;;;;5.95;87.67;100782.20;1713122;83;20358;-77
2022/11/15 10:28:51;;;;;;;;;;;;;;;6.04;87.77;100780.11;1713878;83;20202;-78
2022/11/15 10:31:38;;;;;;;;;;;;;;;6.07;87.59;100782.27;1714622;81;20684;-77
2022/11/15 10:34:24;;;;;;;;;;;;;;;6.13;87.75;100784.02;1704520;83;20202;-77
2022/11/15 10:37:09;;;;;;;;;;;;;;;6.21;87.73;100787.48;1712432;82;20174;-77
2022/11/15 10:40:09;;;;;;;;;;;;;;;6.28;87.74;100786.63;1711619;83;20966;-78
2022/11/15 10:43:17;;;;;;;;;;;;;;;6.28;87.59;100779.78;1712553;83;20234;-77
2022/11/15 10:46:05;;;;;;;;;;;;;;;6.33;87.67;100775.08;1714229;83;20185;-78
2022/11/15 10:48:49;;;;;;;;;;;;;;;6.38;87.70;100779.81;1715573;83;20138;-77
2022/11/15 10:51:38;;;;;;;;;;;;;;;6.41;87.57;100778.55;1714888;83;20203;-77
2022/11/15 10:54:38;;;;;;;;;;;;;;;6.32;87.36;100778.08;1715410;83;20391;-78
2022/11/15 10:57:27;;;;;;;;;;;;;;;6.32;87.53;100766.52;1716541;83;20419;-77
2022/11/15 11:00:30;;;;;;;;;;;;;;;6.36;87.63;100768.67;1712485;83;20609;-77
2022/11/15 11:03:30;;;;;;;;;;;;;;;6.36;87.50;100768.25;1715259;83;20126;-77
2022/11/15 11:06:16;;;;;;;;;;;;;;;6.37;87.51;100772.95;1717178;83;20095;-77
2022/11/15 11:09:03;;;;;;;;;;;;;;;6.42;87.69;100769.55;1717924;82;20139;-77
2022/11/15 11:11:50;;;;;;;;;;;;;;;6.48;87.71;100764.44;1743147;80;20127;-77
2022/11/15 11:14:36;;;;;;;;;;;;;;;6.45;87.49;100754.58;1742791;82;20151;-77
2022/11/15 11:17:31;;;;;;;;;;;;;;;6.43;87.46;100757.15;1725778;82;20126;-77
2022/11/15 11:20:27;;;;;;;;;;;;;;;6.41;87.48;100757.99;1743216;82;20107;-77
2022/11/15 11:23:21;;;;;;;;;;;;;;;6.45;87.59;100758.01;1743130;82;20122;-77
2022/11/15 11:26:30;;;;;;;;;;;;;;;6.51;87.67;100761.88;1744537;82;20110;-77
2022/11/15 11:29:21;;;;;;;;;;;;;;;6.57;87.70;100750.34;1743753;82;20107;-77
2022/11/15 11:32:27;;;;;;;;;;;;;;;6.60;87.67;100745.21;1716623;81;20552;-77
2022/11/15 11:35:24;;;;;;;;;;;;;;;6.64;87.63;100746.93;1742741;82;20437;-77
2022/11/15 11:38:38;;;;;;;;;;;;;;;6.69;87.64;100737.09;1744277;82;20106;-77
2022/11/15 11:41:48;;;;;;;;;;;;;;;6.75;87.71;100734.53;1742356;82;20138;-77
2022/11/15 11:44:51;;;;;;;;;;;;;;;6.80;87.63;100730.22;1743332;82;20114;-77
2022/11/15 11:47:40;;;;;;;;;;;;;;;6.84;87.65;100735.37;1743248;82;20461;-77
2022/11/15 11:50:27;;;;;;;;;;;;;;;6.87;87.62;100730.66;1742535;82;20434;-77
2022/11/15 11:53:21;;;;;;;;;;;;;;;6.92;87.62;100732.81;1739660;82;20426;-77
2022/11/15 11:56:18;;;;;;;;;;;;;;;6.88;87.38;100729.38;1743455;82;20114;-77
2022/11/15 11:59:09;;;;;;;;;;;;;;;6.85;87.48;100722.95;1743652;82;20130;-77
2022/11/15 12:01:54;;;;;;;;;;;;;;;6.81;87.43;100715.23;1735809;80;20130;-77
2022/11/15 12:04:42;;;;;;;;;;;;;;;6.81;87.50;100710.09;1744054;80;20447;-77
2022/11/15 12:07:32;;;;;;;;;;;;;;;6.82;87.54;100711.81;1744382;81;20134;-78
2022/11/15 12:10:20;;;;;;;;;;;;;;;6.84;87.56;100712.23;1738663;82;20142;-78
2022/11/15 12:13:10;;;;;;;;;;;;;;;6.86;87.61;100716.95;1734540;82;20182;-78
2022/11/15 12:16:01;;;;;;;;;;;;;;;6.87;87.54;100713.53;1735132;82;20135;-78
2022/11/15 12:18:51;;;;;;;;;;;;;;;6.90;87.60;100711.39;1735503;82;20114;-78
2022/11/15 12:21:48;;;;;;;;;;;;;;;6.91;87.53;100710.10;1734329;82;20111;-78
2022/11/15 12:24:42;;;;;;;;;;;;;;;6.93;87.52;100706.25;1733775;82;20576;-78
2022/11/15 12:27:48;;;;;;;;;;;;;;;6.95;87.54;100705.82;1736172;80;20131;-78
2022/11/15 12:30:45;;;;;;;;;;;;;;;6.94;87.53;100701.53;1736050;82;20644;-77
2022/11/15 12:33:36;;;;;;;;;;;;;;;6.96;87.51;100699.83;1733338;82;20237;-77
2022/11/15 12:36:24;;;;;;;;;;;;;;;6.95;87.42;100692.54;1731831;82;20202;-78
2022/11/15 12:39:11;;;;;;;;;;;;;;;6.91;87.42;100692.54;1732220;82;20207;-84
2022/11/15 12:41:59;;;;;;;;;;;;;;;6.90;87.48;100686.54;1732030;82;20589;-85
2022/11/15 12:44:50;;;;;;;;;;;;;;;6.92;87.50;100680.11;1728840;82;20545;-85
2022/11/15 12:47:34;;;;;;;;;;;;;;;6.94;87.53;100671.55;1730339;82;20239;-85
2022/11/15 12:50:38;;;;;;;;;;;;;;;6.94;87.47;100675.40;1731161;82;20654;-84
2022/11/15 12:53:27;;;;;;;;;;;;;;;6.88;87.35;100669.41;1729995;82;20195;-85
2022/11/15 12:56:18;;;;;;;;;;;;;;;6.84;87.44;100670.26;1731410;82;20175;-84
2022/11/15 12:59:05;;;;;;;;;;;;;;;6.84;87.51;100667.26;1730082;82;20162;-85
2022/11/15 13:01:55;;;;;;;;;;;;;;;6.79;87.40;100660.41;1730218;82;20513;-85
2022/11/15 13:04:40;;;;;;;;;;;;;;;6.77;87.51;100666.83;1730622;82;20528;-85
2022/11/15 13:07:49;;;;;;;;;;;;;;;6.79;87.53;100670.26;1731143;82;20565;-85
2022/11/15 13:10:38;;;;;;;;;;;;;;;6.78;87.53;100664.69;1722493;82;20405;-85
2022/11/15 13:13:43;;;;;;;;;;;;;;;6.81;87.61;100659.55;1719293;82;20238;-85
2022/11/15 13:16:28;;;;;;;;;;;;;;;6.84;87.63;100657.41;1726018;82;20195;-85
2022/11/15 13:19:20;;;;;;;;;;;;;;;6.83;87.51;100656.55;1721175;82;20550;-85
2022/11/15 13:25:40;;;;;;;;;;;;;;;6.76;87.45;100642.45;1725843;82;20234;-85
2022/11/15 13:28:40;;;;;;;;;;;;;;;6.74;87.54;100639.02;1726875;82;20214;-86
2022/11/15 13:31:37;;;;;;;;;;;;;;;6.71;87.50;100642.88;1719050;82;20129;-85
2022/11/15 13:34:27;;;;;;;;;;;;;;;6.66;87.52;100633.88;1724406;81;20195;-84
2022/11/15 13:37:21;;;;;;;;;;;;;;;6.67;87.62;100629.17;1723413;82;20496;-85
2022/11/15 13:40:27;;;;;;;;;;;;;;;6.68;87.54;100633.45;1717662;82;20517;-80
2022/11/15 13:43:23;;;;;;;;;;;;;;;6.68;87.54;100635.16;1722302;82;20194;-80
2022/11/15 13:46:12;;;;;;;;;;;;;;;6.67;87.57;100626.60;1725706;82;20193;-80
2022/11/15 13:49:01;;;;;;;;;;;;;;;6.67;87.58;100618.89;1722377;82;20215;-80
2022/11/15 13:51:50;;;;;;;;;;;;;;;6.66;87.55;100625.31;1722081;81;20405;-81
2022/11/15 13:54:45;;;;;;;;;;;;;;;6.61;87.54;100632.59;1719483;82;20132;-81
2022/11/15 13:57:33;;;;;;;;;;;;;;;6.61;87.60;100629.17;1719154;82;20138;-81
2022/11/15 14:00:39;;;;;;;;;;;;;;;6.62;87.67;100630.45;1730657;82;20201;-81
2022/11/15 14:03:35;;;;;;;;;;;;;;;6.67;87.70;100628.31;1724428;82;20151;-81
2022/11/15 14:06:22;;;;;;;;;;;;;;;6.70;87.70;100627.89;1733024;81;20240;-81
2022/11/15 14:09:13;;;;;;;;;;;;;;;6.73;87.63;100636.88;1723673;82;20209;-80
2022/11/15 14:11:58;;;;;;;;;;;;;;;6.73;87.58;100629.60;1703587;82;20152;-80
2022/11/15 14:14:45;;;;;;;;;;;;;;;6.74;87.60;100622.32;1716503;83;20219;-81
2022/11/15 14:17:35;;;;;;;;;;;;;;;6.73;87.58;100627.03;1716929;83;20182;-81
2022/11/15 14:20:32;;;;;;;;;;;;;;;6.72;87.61;100630.03;1716059;83;20157;-81
2022/11/15 14:23:25;;;;;;;;;;;;;;;6.70;87.63;100617.61;1713721;81;20600;-81
2022/11/15 14:26:31;;;;;;;;;;;;;;;6.69;87.66;100619.75;1716449;83;20433;-81
2022/11/15 14:29:27;;;;;;;;;;;;;;;6.71;87.69;100619.75;1712435;83;20208;-79
2022/11/15 14:32:18;;;;;;;;;;;;;;;6.69;87.64;100619.75;1713270;81;20294;-78
2022/11/15 14:35:03;;;;;;;;;;;;;;;6.70;87.69;100615.04;1714893;83;20243;-78
2022/11/15 14:37:48;;;;;;;;;;;;;;;6.71;87.67;100614.19;1702190;83;20663;-78
2022/11/15 14:40:33;;;;;;;;;;;;;;;6.72;87.59;100608.61;1717027;83;20146;-78
2022/11/15 14:43:17;;;;;;;;;;;;;;;6.71;87.56;100611.61;1715629;83;20236;-78
2022/11/15 14:46:02;;;;;;;;;;;;;;;6.71;87.55;100610.33;1715116;83;20649;-78